Terminal Aerodrome Forecast
Issued by NWS Greer, SC

Home | Current Version | Previous Version | Text Only | Print | Product List | Glossary On
Versions: 1 2 3 4 5 6 7 8 9 10 11 12 13 14 15 16 17 18 19 20 21 22 23 24 25 26 27 28 29 30 31 32
460
FTUS42 KGSP 040533
TAFAVL
TAF
KAVL 040533Z 0406/0506 12003KT P6SM -RA OVC050
     FM040900 12003KT 5SM BR OVC025
      TEMPO 0409/0413 2SM -RA BR OVC015
     FM041300 16005KT 2SM BR OVC008
     FM050500 17003KT 1 1/2SM -RA BR OVC003=

USA.gov is the U.S. government's official web portal to all federal, state and local government web resources and services.